sensor_id;sensor_type;location;lat;lon;timestamp;P1;durP1;ratioP1;P2;durP2;ratioP2
39452;SDS011;25154;-33.684;151.102;2023-04-06T00:02:39;6.35;;;1.50;;
39452;SDS011;25154;-33.684;151.102;2023-04-06T00:07:42;6.53;;;1.42;;
39452;SDS011;25154;-33.684;151.102;2023-04-06T00:12:45;5.22;;;1.30;;
39452;SDS011;25154;-33.684;151.102;2023-04-06T00:17:48;10.60;;;1.30;;
39452;SDS011;25154;-33.684;151.102;2023-04-06T00:22:51;6.28;;;1.30;;
39452;SDS011;25154;-33.684;151.102;2023-04-06T00:27:54;4.57;;;1.08;;
39452;SDS011;25154;-33.684;151.102;2023-04-06T00:32:57;4.60;;;1.30;;
39452;SDS011;25154;-33.684;151.102;2023-04-06T00:38:02;7.43;;;1.50;;
39452;SDS011;25154;-33.684;151.102;2023-04-06T00:43:05;7.90;;;1.90;;
39452;SDS011;25154;-33.684;151.102;2023-04-06T00:48:09;7.22;;;1.40;;
39452;SDS011;25154;-33.684;151.102;2023-04-06T00:53:12;6.65;;;1.60;;
39452;SDS011;25154;-33.684;151.102;2023-04-06T00:58:14;5.32;;;1.38;;
39452;SDS011;25154;-33.684;151.102;2023-04-06T01:03:17;4.78;;;1.58;;
39452;SDS011;25154;-33.684;151.102;2023-04-06T01:08:21;4.90;;;1.40;;
39452;SDS011;25154;-33.684;151.102;2023-04-06T01:13:24;6.53;;;1.27;;
39452;SDS011;25154;-33.684;151.102;2023-04-06T01:18:28;6.53;;;1.30;;
39452;SDS011;25154;-33.684;151.102;2023-04-06T01:23:31;6.50;;;1.50;;
39452;SDS011;25154;-33.684;151.102;2023-04-06T01:28:34;5.97;;;1.58;;
39452;SDS011;25154;-33.684;151.102;2023-04-06T01:33:38;4.68;;;1.45;;
39452;SDS011;25154;-33.684;151.102;2023-04-06T01:38:41;4.57;;;1.30;;
39452;SDS011;25154;-33.684;151.102;2023-04-06T01:43:44;6.18;;;1.40;;
39452;SDS011;25154;-33.684;151.102;2023-04-06T01:48:48;5.10;;;1.20;;
39452;SDS011;25154;-33.684;151.102;2023-04-06T01:53:51;3.95;;;1.25;;
39452;SDS011;25154;-33.684;151.102;2023-04-06T01:58:54;2.72;;;1.20;;
39452;SDS011;25154;-33.684;151.102;2023-04-06T02:03:57;4.38;;;1.30;;
39452;SDS011;25154;-33.684;151.102;2023-04-06T02:08:59;1.65;;;0.70;;
39452;SDS011;25154;-33.684;151.102;2023-04-06T02:14:02;6.50;;;0.93;;
39452;SDS011;25154;-33.684;151.102;2023-04-06T02:19:05;2.22;;;1.00;;
39452;SDS011;25154;-33.684;151.102;2023-04-06T02:24:08;1.77;;;0.80;;
39452;SDS011;25154;-33.684;151.102;2023-04-06T02:29:11;4.18;;;1.40;;
39452;SDS011;25154;-33.684;151.102;2023-04-06T02:34:13;2.75;;;0.90;;
39452;SDS011;25154;-33.684;151.102;2023-04-06T02:39:18;2.85;;;0.90;;
39452;SDS011;25154;-33.684;151.102;2023-04-06T02:44:21;2.50;;;0.75;;
39452;SDS011;25154;-33.684;151.102;2023-04-06T02:49:24;3.78;;;0.80;;
39452;SDS011;25154;-33.684;151.102;2023-04-06T02:54:27;2.70;;;0.70;;
39452;SDS011;25154;-33.684;151.102;2023-04-06T02:59:30;2.00;;;0.82;;
39452;SDS011;25154;-33.684;151.102;2023-04-06T03:04:32;2.83;;;1.08;;
39452;SDS011;25154;-33.684;151.102;2023-04-06T03:09:36;2.95;;;0.93;;
39452;SDS011;25154;-33.684;151.102;2023-04-06T03:14:39;3.05;;;0.90;;
39452;SDS011;25154;-33.684;151.102;2023-04-06T03:19:42;3.25;;;0.90;;
39452;SDS011;25154;-33.684;151.102;2023-04-06T03:24:45;4.15;;;0.90;;
39452;SDS011;25154;-33.684;151.102;2023-04-06T03:29:47;2.58;;;0.70;;
39452;SDS011;25154;-33.684;151.102;2023-04-06T03:34:50;2.15;;;0.80;;
39452;SDS011;25154;-33.684;151.102;2023-04-06T03:39:53;1.42;;;0.70;;
39452;SDS011;25154;-33.684;151.102;2023-04-06T03:44:56;3.20;;;0.80;;
39452;SDS011;25154;-33.684;151.102;2023-04-06T03:49:59;2.55;;;1.00;;
39452;SDS011;25154;-33.684;151.102;2023-04-06T03:55:03;3.35;;;0.90;;
39452;SDS011;25154;-33.684;151.102;2023-04-06T04:00:06;3.72;;;1.10;;
39452;SDS011;25154;-33.684;151.102;2023-04-06T04:05:10;4.45;;;0.80;;
39452;SDS011;25154;-33.684;151.102;2023-04-06T04:10:12;1.50;;;0.60;;
39452;SDS011;25154;-33.684;151.102;2023-04-06T04:15:15;3.50;;;1.02;;
39452;SDS011;25154;-33.684;151.102;2023-04-06T04:20:19;3.65;;;0.90;;
39452;SDS011;25154;-33.684;151.102;2023-04-06T04:25:22;2.75;;;0.80;;
39452;SDS011;25154;-33.684;151.102;2023-04-06T04:30:25;2.42;;;0.95;;
39452;SDS011;25154;-33.684;151.102;2023-04-06T04:35:28;2.60;;;0.80;;
39452;SDS011;25154;-33.684;151.102;2023-04-06T04:40:31;7.72;;;1.42;;
39452;SDS011;25154;-33.684;151.102;2023-04-06T04:45:33;2.65;;;0.90;;
39452;SDS011;25154;-33.684;151.102;2023-04-06T04:50:36;3.05;;;1.00;;
39452;SDS011;25154;-33.684;151.102;2023-04-06T04:55:39;3.13;;;0.85;;
39452;SDS011;25154;-33.684;151.102;2023-04-06T05:00:42;3.97;;;0.98;;
39452;SDS011;25154;-33.684;151.102;2023-04-06T05:05:45;3.17;;;0.98;;
39452;SDS011;25154;-33.684;151.102;2023-04-06T05:10:48;3.95;;;1.10;;
39452;SDS011;25154;-33.684;151.102;2023-04-06T05:15:51;3.25;;;0.85;;
39452;SDS011;25154;-33.684;151.102;2023-04-06T05:20:54;2.55;;;0.68;;
39452;SDS011;25154;-33.684;151.102;2023-04-06T05:25:57;5.20;;;1.10;;
39452;SDS011;25154;-33.684;151.102;2023-04-06T05:30:59;1.75;;;0.70;;
39452;SDS011;25154;-33.684;151.102;2023-04-06T05:36:02;3.20;;;0.60;;
39452;SDS011;25154;-33.684;151.102;2023-04-06T05:41:07;2.72;;;0.70;;
39452;SDS011;25154;-33.684;151.102;2023-04-06T05:46:11;2.72;;;0.90;;
39452;SDS011;25154;-33.684;151.102;2023-04-06T05:51:13;2.30;;;0.70;;
39452;SDS011;25154;-33.684;151.102;2023-04-06T05:56:16;2.25;;;0.93;;
39452;SDS011;25154;-33.684;151.102;2023-04-06T06:01:19;8.80;;;1.20;;
39452;SDS011;25154;-33.684;151.102;2023-04-06T06:06:21;3.13;;;0.80;;
39452;SDS011;25154;-33.684;151.102;2023-04-06T06:11:24;2.65;;;0.90;;
39452;SDS011;25154;-33.684;151.102;2023-04-06T06:16:27;2.50;;;0.68;;
39452;SDS011;25154;-33.684;151.102;2023-04-06T06:21:30;2.63;;;0.85;;
39452;SDS011;25154;-33.684;151.102;2023-04-06T06:26:33;4.18;;;1.00;;
39452;SDS011;25154;-33.684;151.102;2023-04-06T06:31:37;6.03;;;1.48;;
39452;SDS011;25154;-33.684;151.102;2023-04-06T06:36:40;3.00;;;0.70;;
39452;SDS011;25154;-33.684;151.102;2023-04-06T06:41:43;3.72;;;1.13;;
39452;SDS011;25154;-33.684;151.102;2023-04-06T06:46:46;3.35;;;0.80;;
39452;SDS011;25154;-33.684;151.102;2023-04-06T06:51:49;2.35;;;0.90;;
39452;SDS011;25154;-33.684;151.102;2023-04-06T06:56:52;3.45;;;0.98;;
39452;SDS011;25154;-33.684;151.102;2023-04-06T07:01:55;3.05;;;0.80;;
39452;SDS011;25154;-33.684;151.102;2023-04-06T07:06:58;3.40;;;0.90;;
39452;SDS011;25154;-33.684;151.102;2023-04-06T07:12:02;3.20;;;0.85;;
39452;SDS011;25154;-33.684;151.102;2023-04-06T07:17:04;2.72;;;0.70;;
39452;SDS011;25154;-33.684;151.102;2023-04-06T07:22:07;4.05;;;0.93;;
39452;SDS011;25154;-33.684;151.102;2023-04-06T07:27:10;4.30;;;0.90;;
39452;SDS011;25154;-33.684;151.102;2023-04-06T07:32:13;3.28;;;0.75;;
39452;SDS011;25154;-33.684;151.102;2023-04-06T07:37:16;2.45;;;0.70;;
39452;SDS011;25154;-33.684;151.102;2023-04-06T07:42:18;5.28;;;0.80;;
39452;SDS011;25154;-33.684;151.102;2023-04-06T07:47:21;4.82;;;0.90;;
39452;SDS011;25154;-33.684;151.102;2023-04-06T07:52:24;3.80;;;0.90;;
39452;SDS011;25154;-33.684;151.102;2023-04-06T07:57:27;4.38;;;0.95;;
39452;SDS011;25154;-33.684;151.102;2023-04-06T08:02:32;8.20;;;1.27;;
39452;SDS011;25154;-33.684;151.102;2023-04-06T08:07:35;6.18;;;1.10;;
39452;SDS011;25154;-33.684;151.102;2023-04-06T08:12:38;3.47;;;0.77;;
39452;SDS011;25154;-33.684;151.102;2023-04-06T08:17:41;6.97;;;1.00;;
39452;SDS011;25154;-33.684;151.102;2023-04-06T08:22:44;3.67;;;1.20;;
39452;SDS011;25154;-33.684;151.102;2023-04-06T08:27:46;7.18;;;1.35;;
39452;SDS011;25154;-33.684;151.102;2023-04-06T08:32:49;4.72;;;1.13;;
39452;SDS011;25154;-33.684;151.102;2023-04-06T08:37:52;6.75;;;1.20;;
39452;SDS011;25154;-33.684;151.102;2023-04-06T08:42:55;6.93;;;1.13;;
39452;SDS011;25154;-33.684;151.102;2023-04-06T08:48:02;4.38;;;1.30;;
39452;SDS011;25154;-33.684;151.102;2023-04-06T08:53:07;3.22;;;1.23;;
39452;SDS011;25154;-33.684;151.102;2023-04-06T08:58:10;3.80;;;1.20;;
39452;SDS011;25154;-33.684;151.102;2023-04-06T09:03:12;7.15;;;1.55;;
39452;SDS011;25154;-33.684;151.102;2023-04-06T09:08:16;7.30;;;1.40;;
39452;SDS011;25154;-33.684;151.102;2023-04-06T09:13:19;7.10;;;1.40;;
39452;SDS011;25154;-33.684;151.102;2023-04-06T09:18:28;7.35;;;1.83;;
39452;SDS011;25154;-33.684;151.102;2023-04-06T09:23:32;4.68;;;1.60;;
39452;SDS011;25154;-33.684;151.102;2023-04-06T09:28:48;4.22;;;1.30;;
39452;SDS011;25154;-33.684;151.102;2023-04-06T09:33:58;13.98;;;1.70;;
39452;SDS011;25154;-33.684;151.102;2023-04-06T09:39:02;6.50;;;1.85;;
39452;SDS011;25154;-33.684;151.102;2023-04-06T09:44:09;7.55;;;1.50;;
39452;SDS011;25154;-33.684;151.102;2023-04-06T09:49:13;6.95;;;1.30;;
39452;SDS011;25154;-33.684;151.102;2023-04-06T09:54:18;5.22;;;1.25;;
39452;SDS011;25154;-33.684;151.102;2023-04-06T10:04:50;5.18;;;1.42;;
39452;SDS011;25154;-33.684;151.102;2023-04-06T10:10:03;4.47;;;1.30;;
39452;SDS011;25154;-33.684;151.102;2023-04-06T10:15:07;5.78;;;1.60;;
39452;SDS011;25154;-33.684;151.102;2023-04-06T10:20:17;5.82;;;1.45;;
39452;SDS011;25154;-33.684;151.102;2023-04-06T10:25:32;4.22;;;1.42;;
39452;SDS011;25154;-33.684;151.102;2023-04-06T10:30:36;4.38;;;1.35;;
39452;SDS011;25154;-33.684;151.102;2023-04-06T10:35:45;17.73;;;1.92;;
39452;SDS011;25154;-33.684;151.102;2023-04-06T10:40:48;4.53;;;1.20;;
39452;SDS011;25154;-33.684;151.102;2023-04-06T10:45:56;4.75;;;1.30;;
39452;SDS011;25154;-33.684;151.102;2023-04-06T10:51:01;6.97;;;1.60;;
39452;SDS011;25154;-33.684;151.102;2023-04-06T10:56:14;10.02;;;1.52;;
39452;SDS011;25154;-33.684;151.102;2023-04-06T11:01:18;13.30;;;1.50;;
39452;SDS011;25154;-33.684;151.102;2023-04-06T11:06:23;4.45;;;1.38;;
39452;SDS011;25154;-33.684;151.102;2023-04-06T11:11:27;8.35;;;1.92;;
39452;SDS011;25154;-33.684;151.102;2023-04-06T11:16:30;5.32;;;1.75;;
39452;SDS011;25154;-33.684;151.102;2023-04-06T11:21:34;10.57;;;2.05;;
39452;SDS011;25154;-33.684;151.102;2023-04-06T11:26:41;6.82;;;1.67;;
39452;SDS011;25154;-33.684;151.102;2023-04-06T11:31:47;12.65;;;1.92;;
39452;SDS011;25154;-33.684;151.102;2023-04-06T11:36:56;9.70;;;2.03;;
39452;SDS011;25154;-33.684;151.102;2023-04-06T11:42:00;6.38;;;1.90;;
39452;SDS011;25154;-33.684;151.102;2023-04-06T11:47:04;4.20;;;1.80;;
39452;SDS011;25154;-33.684;151.102;2023-04-06T11:57:21;7.88;;;2.03;;
39452;SDS011;25154;-33.684;151.102;2023-04-06T12:02:28;9.45;;;1.90;;
39452;SDS011;25154;-33.684;151.102;2023-04-06T12:07:32;8.63;;;2.25;;
39452;SDS011;25154;-33.684;151.102;2023-04-06T12:12:35;9.43;;;1.95;;
39452;SDS011;25154;-33.684;151.102;2023-04-06T12:17:39;6.68;;;1.88;;
39452;SDS011;25154;-33.684;151.102;2023-04-06T12:22:42;11.95;;;1.92;;
39452;SDS011;25154;-33.684;151.102;2023-04-06T12:27:44;10.32;;;1.90;;
39452;SDS011;25154;-33.684;151.102;2023-04-06T12:32:47;7.57;;;2.10;;
39452;SDS011;25154;-33.684;151.102;2023-04-06T12:37:51;5.28;;;1.83;;
39452;SDS011;25154;-33.684;151.102;2023-04-06T12:42:55;3.40;;;1.50;;
39452;SDS011;25154;-33.684;151.102;2023-04-06T12:47:57;7.53;;;1.92;;
39452;SDS011;25154;-33.684;151.102;2023-04-06T12:53:00;5.45;;;1.85;;
39452;SDS011;25154;-33.684;151.102;2023-04-06T12:58:02;8.25;;;1.67;;
39452;SDS011;25154;-33.684;151.102;2023-04-06T13:03:05;4.80;;;1.70;;
39452;SDS011;25154;-33.684;151.102;2023-04-06T13:08:07;13.85;;;2.13;;
39452;SDS011;25154;-33.684;151.102;2023-04-06T13:13:10;7.47;;;1.77;;
39452;SDS011;25154;-33.684;151.102;2023-04-06T13:18:12;5.35;;;1.67;;
39452;SDS011;25154;-33.684;151.102;2023-04-06T13:23:15;6.82;;;2.20;;
39452;SDS011;25154;-33.684;151.102;2023-04-06T13:28:17;6.97;;;1.67;;
39452;SDS011;25154;-33.684;151.102;2023-04-06T13:33:22;7.25;;;1.73;;
39452;SDS011;25154;-33.684;151.102;2023-04-06T13:38:25;4.65;;;2.05;;
39452;SDS011;25154;-33.684;151.102;2023-04-06T13:43:28;7.40;;;1.73;;
39452;SDS011;25154;-33.684;151.102;2023-04-06T13:48:31;6.82;;;1.50;;
39452;SDS011;25154;-33.684;151.102;2023-04-06T13:53:33;5.68;;;1.98;;
39452;SDS011;25154;-33.684;151.102;2023-04-06T13:58:40;8.83;;;1.90;;
39452;SDS011;25154;-33.684;151.102;2023-04-06T14:03:43;3.63;;;1.75;;
39452;SDS011;25154;-33.684;151.102;2023-04-06T14:08:48;5.20;;;1.73;;
39452;SDS011;25154;-33.684;151.102;2023-04-06T14:13:51;4.45;;;1.77;;
39452;SDS011;25154;-33.684;151.102;2023-04-06T14:18:54;8.63;;;1.80;;
39452;SDS011;25154;-33.684;151.102;2023-04-06T14:23:58;7.15;;;1.60;;
39452;SDS011;25154;-33.684;151.102;2023-04-06T14:29:05;4.45;;;1.50;;
39452;SDS011;25154;-33.684;151.102;2023-04-06T14:34:08;6.20;;;1.73;;
39452;SDS011;25154;-33.684;151.102;2023-04-06T14:39:11;5.68;;;1.55;;
39452;SDS011;25154;-33.684;151.102;2023-04-06T14:44:14;10.00;;;2.15;;
39452;SDS011;25154;-33.684;151.102;2023-04-06T14:49:17;7.65;;;1.77;;
39452;SDS011;25154;-33.684;151.102;2023-04-06T14:54:21;9.60;;;1.90;;
39452;SDS011;25154;-33.684;151.102;2023-04-06T14:59:23;6.78;;;1.80;;
39452;SDS011;25154;-33.684;151.102;2023-04-06T15:04:26;7.93;;;1.52;;
39452;SDS011;25154;-33.684;151.102;2023-04-06T15:09:32;4.85;;;1.48;;
39452;SDS011;25154;-33.684;151.102;2023-04-06T15:14:34;7.40;;;1.70;;
39452;SDS011;25154;-33.684;151.102;2023-04-06T15:19:37;4.40;;;1.55;;
39452;SDS011;25154;-33.684;151.102;2023-04-06T15:24:40;7.35;;;2.40;;
39452;SDS011;25154;-33.684;151.102;2023-04-06T15:29:43;5.95;;;1.70;;
39452;SDS011;25154;-33.684;151.102;2023-04-06T15:34:45;6.05;;;1.88;;
39452;SDS011;25154;-33.684;151.102;2023-04-06T15:39:48;14.82;;;2.20;;
39452;SDS011;25154;-33.684;151.102;2023-04-06T15:44:51;6.78;;;1.70;;
39452;SDS011;25154;-33.684;151.102;2023-04-06T15:49:57;6.93;;;1.80;;
39452;SDS011;25154;-33.684;151.102;2023-04-06T15:55:01;4.60;;;1.75;;
39452;SDS011;25154;-33.684;151.102;2023-04-06T16:00:05;3.47;;;1.45;;
39452;SDS011;25154;-33.684;151.102;2023-04-06T16:05:10;5.32;;;1.40;;
39452;SDS011;25154;-33.684;151.102;2023-04-06T16:10:12;3.75;;;1.42;;
39452;SDS011;25154;-33.684;151.102;2023-04-06T16:15:15;8.63;;;1.60;;
39452;SDS011;25154;-33.684;151.102;2023-04-06T16:20:18;7.75;;;1.73;;
39452;SDS011;25154;-33.684;151.102;2023-04-06T16:25:21;3.83;;;1.60;;
39452;SDS011;25154;-33.684;151.102;2023-04-06T16:30:24;4.82;;;1.70;;
39452;SDS011;25154;-33.684;151.102;2023-04-06T16:35:29;6.38;;;1.90;;
39452;SDS011;25154;-33.684;151.102;2023-04-06T16:40:33;6.57;;;1.60;;
39452;SDS011;25154;-33.684;151.102;2023-04-06T16:45:36;3.30;;;1.83;;
39452;SDS011;25154;-33.684;151.102;2023-04-06T16:50:39;4.00;;;1.58;;
39452;SDS011;25154;-33.684;151.102;2023-04-06T16:55:42;13.40;;;1.73;;
39452;SDS011;25154;-33.684;151.102;2023-04-06T17:00:45;5.18;;;1.48;;
39452;SDS011;25154;-33.684;151.102;2023-04-06T17:05:47;6.55;;;1.75;;
39452;SDS011;25154;-33.684;151.102;2023-04-06T17:10:50;5.18;;;1.77;;
39452;SDS011;25154;-33.684;151.102;2023-04-06T17:15:53;4.75;;;1.65;;
39452;SDS011;25154;-33.684;151.102;2023-04-06T17:20:56;5.32;;;1.77;;
39452;SDS011;25154;-33.684;151.102;2023-04-06T17:26:03;11.90;;;2.03;;
39452;SDS011;25154;-33.684;151.102;2023-04-06T17:31:08;3.40;;;1.90;;
39452;SDS011;25154;-33.684;151.102;2023-04-06T17:36:11;8.63;;;1.90;;
39452;SDS011;25154;-33.684;151.102;2023-04-06T17:41:14;6.57;;;1.60;;
39452;SDS011;25154;-33.684;151.102;2023-04-06T17:46:17;5.53;;;1.73;;
39452;SDS011;25154;-33.684;151.102;2023-04-06T17:51:21;10.15;;;1.90;;
39452;SDS011;25154;-33.684;151.102;2023-04-06T17:56:24;4.65;;;1.73;;
39452;SDS011;25154;-33.684;151.102;2023-04-06T18:01:27;5.22;;;1.55;;
39452;SDS011;25154;-33.684;151.102;2023-04-06T18:06:31;3.00;;;1.40;;
39452;SDS011;25154;-33.684;151.102;2023-04-06T18:11:34;4.57;;;1.58;;
39452;SDS011;25154;-33.684;151.102;2023-04-06T18:16:37;4.43;;;1.65;;
39452;SDS011;25154;-33.684;151.102;2023-04-06T18:21:40;6.63;;;1.70;;
39452;SDS011;25154;-33.684;151.102;2023-04-06T18:26:43;3.45;;;1.40;;
39452;SDS011;25154;-33.684;151.102;2023-04-06T18:31:46;5.18;;;1.50;;
39452;SDS011;25154;-33.684;151.102;2023-04-06T18:36:51;5.00;;;1.60;;
39452;SDS011;25154;-33.684;151.102;2023-04-06T18:41:53;3.13;;;1.58;;
39452;SDS011;25154;-33.684;151.102;2023-04-06T18:46:59;5.07;;;1.50;;
39452;SDS011;25154;-33.684;151.102;2023-04-06T18:52:04;2.80;;;1.30;;
39452;SDS011;25154;-33.684;151.102;2023-04-06T18:57:07;9.30;;;1.85;;
39452;SDS011;25154;-33.684;151.102;2023-04-06T19:02:10;7.07;;;1.70;;
39452;SDS011;25154;-33.684;151.102;2023-04-06T19:07:13;8.15;;;1.45;;
39452;SDS011;25154;-33.684;151.102;2023-04-06T19:12:16;5.40;;;1.27;;
39452;SDS011;25154;-33.684;151.102;2023-04-06T19:17:19;4.20;;;1.60;;
39452;SDS011;25154;-33.684;151.102;2023-04-06T19:22:22;7.93;;;1.45;;
39452;SDS011;25154;-33.684;151.102;2023-04-06T19:27:25;3.17;;;1.45;;
39452;SDS011;25154;-33.684;151.102;2023-04-06T19:32:28;2.83;;;1.40;;
39452;SDS011;25154;-33.684;151.102;2023-04-06T19:37:34;4.30;;;1.40;;
39452;SDS011;25154;-33.684;151.102;2023-04-06T19:42:38;3.78;;;1.60;;
39452;SDS011;25154;-33.684;151.102;2023-04-06T19:47:41;5.53;;;1.95;;
39452;SDS011;25154;-33.684;151.102;2023-04-06T19:52:43;6.07;;;1.58;;
39452;SDS011;25154;-33.684;151.102;2023-04-06T19:57:46;8.60;;;1.60;;
39452;SDS011;25154;-33.684;151.102;2023-04-06T20:02:49;3.97;;;1.65;;
39452;SDS011;25154;-33.684;151.102;2023-04-06T20:07:58;5.22;;;1.33;;
39452;SDS011;25154;-33.684;151.102;2023-04-06T20:13:01;8.77;;;1.60;;
39452;SDS011;25154;-33.684;151.102;2023-04-06T20:18:04;5.05;;;1.50;;
39452;SDS011;25154;-33.684;151.102;2023-04-06T20:23:06;3.78;;;1.75;;
39452;SDS011;25154;-33.684;151.102;2023-04-06T20:28:09;5.43;;;1.60;;
39452;SDS011;25154;-33.684;151.102;2023-04-06T20:33:12;4.07;;;1.58;;
39452;SDS011;25154;-33.684;151.102;2023-04-06T20:38:15;3.85;;;1.67;;
39452;SDS011;25154;-33.684;151.102;2023-04-06T20:43:21;5.97;;;1.25;;
39452;SDS011;25154;-33.684;151.102;2023-04-06T20:48:29;8.85;;;1.60;;
39452;SDS011;25154;-33.684;151.102;2023-04-06T20:53:35;4.00;;;1.50;;
39452;SDS011;25154;-33.684;151.102;2023-04-06T20:58:38;5.28;;;1.45;;
39452;SDS011;25154;-33.684;151.102;2023-04-06T21:03:41;4.47;;;1.60;;
39452;SDS011;25154;-33.684;151.102;2023-04-06T21:08:44;4.63;;;1.80;;
39452;SDS011;25154;-33.684;151.102;2023-04-06T21:13:47;4.72;;;1.60;;
39452;SDS011;25154;-33.684;151.102;2023-04-06T21:18:50;7.07;;;1.60;;
39452;SDS011;25154;-33.684;151.102;2023-04-06T21:23:52;2.67;;;1.40;;
39452;SDS011;25154;-33.684;151.102;2023-04-06T21:28:56;3.70;;;1.70;;
39452;SDS011;25154;-33.684;151.102;2023-04-06T21:34:03;7.38;;;1.73;;
39452;SDS011;25154;-33.684;151.102;2023-04-06T21:39:10;4.80;;;1.60;;
39452;SDS011;25154;-33.684;151.102;2023-04-06T21:44:12;6.97;;;1.60;;
39452;SDS011;25154;-33.684;151.102;2023-04-06T21:49:15;4.05;;;1.60;;
39452;SDS011;25154;-33.684;151.102;2023-04-06T21:54:18;5.80;;;1.63;;
39452;SDS011;25154;-33.684;151.102;2023-04-06T21:59:21;7.93;;;1.60;;
39452;SDS011;25154;-33.684;151.102;2023-04-06T22:04:23;7.03;;;1.50;;
39452;SDS011;25154;-33.684;151.102;2023-04-06T22:09:26;5.15;;;1.75;;
39452;SDS011;25154;-33.684;151.102;2023-04-06T22:14:29;5.25;;;1.45;;
39452;SDS011;25154;-33.684;151.102;2023-04-06T22:19:32;6.82;;;1.30;;
39452;SDS011;25154;-33.684;151.102;2023-04-06T22:24:34;6.20;;;1.65;;
39452;SDS011;25154;-33.684;151.102;2023-04-06T22:29:37;5.03;;;1.27;;
39452;SDS011;25154;-33.684;151.102;2023-04-06T22:34:40;3.47;;;0.90;;
39452;SDS011;25154;-33.684;151.102;2023-04-06T22:39:44;2.88;;;0.90;;
39452;SDS011;25154;-33.684;151.102;2023-04-06T22:44:46;1.45;;;0.80;;
39452;SDS011;25154;-33.684;151.102;2023-04-06T22:49:49;5.40;;;1.00;;
39452;SDS011;25154;-33.684;151.102;2023-04-06T22:54:52;3.70;;;1.52;;
39452;SDS011;25154;-33.684;151.102;2023-04-06T22:59:55;8.23;;;1.10;;
39452;SDS011;25154;-33.684;151.102;2023-04-06T23:04:57;5.20;;;1.13;;
39452;SDS011;25154;-33.684;151.102;2023-04-06T23:10:00;4.00;;;0.98;;
39452;SDS011;25154;-33.684;151.102;2023-04-06T23:15:03;5.07;;;1.38;;
39452;SDS011;25154;-33.684;151.102;2023-04-06T23:20:07;4.78;;;1.45;;
39452;SDS011;25154;-33.684;151.102;2023-04-06T23:25:09;3.00;;;1.13;;
39452;SDS011;25154;-33.684;151.102;2023-04-06T23:30:12;5.47;;;1.50;;
39452;SDS011;25154;-33.684;151.102;2023-04-06T23:35:15;6.18;;;1.63;;
39452;SDS011;25154;-33.684;151.102;2023-04-06T23:40:18;5.90;;;1.80;;
39452;SDS011;25154;-33.684;151.102;2023-04-06T23:45:21;5.45;;;1.83;;
39452;SDS011;25154;-33.684;151.102;2023-04-06T23:50:23;5.05;;;1.90;;
39452;SDS011;25154;-33.684;151.102;2023-04-06T23:55:26;6.68;;;1.73;;
